sensor_id;sensor_type;location;lat;lon;timestamp;P1;durP1;ratioP1;P2;durP2;ratioP2
17953;SDS011;9102;53.548;9.926;2022-11-20T00:02:12;5.22;;;3.47;;
17953;SDS011;9102;53.548;9.926;2022-11-20T00:04:39;5.50;;;3.03;;
17953;SDS011;9102;53.548;9.926;2022-11-20T00:07:06;5.78;;;3.30;;
17953;SDS011;9102;53.548;9.926;2022-11-20T00:09:33;7.23;;;3.60;;
17953;SDS011;9102;53.548;9.926;2022-11-20T00:12:00;6.28;;;3.90;;
17953;SDS011;9102;53.548;9.926;2022-11-20T00:14:27;4.35;;;2.88;;
17953;SDS011;9102;53.548;9.926;2022-11-20T00:16:55;8.40;;;3.47;;
17953;SDS011;9102;53.548;9.926;2022-11-20T00:19:22;9.05;;;3.55;;
17953;SDS011;9102;53.548;9.926;2022-11-20T00:21:48;5.75;;;3.65;;
17953;SDS011;9102;53.548;9.926;2022-11-20T00:24:16;6.85;;;3.90;;
17953;SDS011;9102;53.548;9.926;2022-11-20T00:26:43;6.05;;;3.53;;
17953;SDS011;9102;53.548;9.926;2022-11-20T00:29:10;10.70;;;4.18;;
17953;SDS011;9102;53.548;9.926;2022-11-20T00:31:37;6.85;;;3.35;;
17953;SDS011;9102;53.548;9.926;2022-11-20T00:34:05;6.50;;;3.53;;
17953;SDS011;9102;53.548;9.926;2022-11-20T00:36:33;6.90;;;3.75;;
17953;SDS011;9102;53.548;9.926;2022-11-20T00:39:00;8.13;;;3.53;;
17953;SDS011;9102;53.548;9.926;2022-11-20T00:41:27;6.72;;;3.90;;
17953;SDS011;9102;53.548;9.926;2022-11-20T00:43:55;6.35;;;3.88;;
17953;SDS011;9102;53.548;9.926;2022-11-20T00:46:23;8.43;;;4.13;;
17953;SDS011;9102;53.548;9.926;2022-11-20T00:48:50;7.07;;;3.50;;
17953;SDS011;9102;53.548;9.926;2022-11-20T00:51:19;5.22;;;3.40;;
17953;SDS011;9102;53.548;9.926;2022-11-20T00:53:47;7.03;;;3.70;;
17953;SDS011;9102;53.548;9.926;2022-11-20T00:56:15;6.78;;;4.03;;
17953;SDS011;9102;53.548;9.926;2022-11-20T00:58:44;8.97;;;3.83;;
17953;SDS011;9102;53.548;9.926;2022-11-20T01:01:13;7.57;;;3.35;;
17953;SDS011;9102;53.548;9.926;2022-11-20T01:03:59;5.82;;;3.45;;
17953;SDS011;9102;53.548;9.926;2022-11-20T01:06:28;7.03;;;3.65;;
17953;SDS011;9102;53.548;9.926;2022-11-20T01:08:57;9.52;;;4.00;;
17953;SDS011;9102;53.548;9.926;2022-11-20T01:11:26;6.30;;;3.72;;
17953;SDS011;9102;53.548;9.926;2022-11-20T01:13:54;7.28;;;4.13;;
17953;SDS011;9102;53.548;9.926;2022-11-20T01:16:23;8.15;;;3.90;;
17953;SDS011;9102;53.548;9.926;2022-11-20T01:18:52;5.50;;;3.28;;
17953;SDS011;9102;53.548;9.926;2022-11-20T01:21:21;6.28;;;3.63;;
17953;SDS011;9102;53.548;9.926;2022-11-20T01:23:50;8.43;;;3.70;;
17953;SDS011;9102;53.548;9.926;2022-11-20T01:26:17;7.53;;;4.15;;
17953;SDS011;9102;53.548;9.926;2022-11-20T01:28:46;9.10;;;3.73;;
17953;SDS011;9102;53.548;9.926;2022-11-20T01:31:14;5.57;;;3.60;;
17953;SDS011;9102;53.548;9.926;2022-11-20T01:33:44;6.60;;;3.45;;
17953;SDS011;9102;53.548;9.926;2022-11-20T01:36:12;7.70;;;3.42;;
17953;SDS011;9102;53.548;9.926;2022-11-20T01:38:40;8.87;;;4.77;;
17953;SDS011;9102;53.548;9.926;2022-11-20T01:41:09;7.53;;;3.53;;
17953;SDS011;9102;53.548;9.926;2022-11-20T01:43:56;7.77;;;3.83;;
17953;SDS011;9102;53.548;9.926;2022-11-20T01:46:22;6.83;;;4.23;;
17953;SDS011;9102;53.548;9.926;2022-11-20T01:48:51;5.78;;;3.60;;
17953;SDS011;9102;53.548;9.926;2022-11-20T01:51:24;6.20;;;3.85;;
17953;SDS011;9102;53.548;9.926;2022-11-20T01:53:53;5.00;;;3.53;;
17953;SDS011;9102;53.548;9.926;2022-11-20T01:56:24;8.40;;;3.90;;
17953;SDS011;9102;53.548;9.926;2022-11-20T01:58:55;11.80;;;4.18;;
17953;SDS011;9102;53.548;9.926;2022-11-20T02:01:27;6.57;;;4.10;;
17953;SDS011;9102;53.548;9.926;2022-11-20T02:03:54;7.32;;;4.10;;
17953;SDS011;9102;53.548;9.926;2022-11-20T02:06:23;6.18;;;3.95;;
17953;SDS011;9102;53.548;9.926;2022-11-20T02:08:51;9.95;;;4.32;;
17953;SDS011;9102;53.548;9.926;2022-11-20T02:11:18;7.95;;;4.20;;
17953;SDS011;9102;53.548;9.926;2022-11-20T02:13:47;6.20;;;3.90;;
17953;SDS011;9102;53.548;9.926;2022-11-20T02:16:15;8.63;;;4.00;;
17953;SDS011;9102;53.548;9.926;2022-11-20T02:18:45;6.72;;;4.55;;
17953;SDS011;9102;53.548;9.926;2022-11-20T02:21:14;8.73;;;4.55;;
17953;SDS011;9102;53.548;9.926;2022-11-20T02:24:00;7.43;;;4.63;;
17953;SDS011;9102;53.548;9.926;2022-11-20T02:26:30;7.28;;;4.50;;
17953;SDS011;9102;53.548;9.926;2022-11-20T02:28:58;8.00;;;4.95;;
17953;SDS011;9102;53.548;9.926;2022-11-20T02:31:26;7.82;;;4.68;;
17953;SDS011;9102;53.548;9.926;2022-11-20T02:33:56;7.75;;;4.68;;
17953;SDS011;9102;53.548;9.926;2022-11-20T02:36:23;11.32;;;4.78;;
17953;SDS011;9102;53.548;9.926;2022-11-20T02:38:54;10.45;;;4.88;;
17953;SDS011;9102;53.548;9.926;2022-11-20T02:41:22;6.63;;;4.18;;
17953;SDS011;9102;53.548;9.926;2022-11-20T02:43:57;9.35;;;4.68;;
17953;SDS011;9102;53.548;9.926;2022-11-20T02:46:24;7.28;;;4.55;;
17953;SDS011;9102;53.548;9.926;2022-11-20T02:48:51;6.80;;;4.57;;
17953;SDS011;9102;53.548;9.926;2022-11-20T02:51:17;8.30;;;4.85;;
17953;SDS011;9102;53.548;9.926;2022-11-20T02:53:44;7.20;;;4.88;;
17953;SDS011;9102;53.548;9.926;2022-11-20T02:56:11;7.53;;;4.25;;
17953;SDS011;9102;53.548;9.926;2022-11-20T02:58:39;8.73;;;5.00;;
17953;SDS011;9102;53.548;9.926;2022-11-20T03:01:06;7.00;;;4.28;;
17953;SDS011;9102;53.548;9.926;2022-11-20T03:03:33;7.82;;;4.60;;
17953;SDS011;9102;53.548;9.926;2022-11-20T03:06:00;7.00;;;4.53;;
17953;SDS011;9102;53.548;9.926;2022-11-20T03:08:27;6.93;;;4.57;;
17953;SDS011;9102;53.548;9.926;2022-11-20T03:10:54;8.85;;;4.72;;
17953;SDS011;9102;53.548;9.926;2022-11-20T03:13:21;7.45;;;4.32;;
17953;SDS011;9102;53.548;9.926;2022-11-20T03:15:49;7.35;;;4.72;;
17953;SDS011;9102;53.548;9.926;2022-11-20T03:18:16;10.05;;;4.57;;
17953;SDS011;9102;53.548;9.926;2022-11-20T03:20:42;7.85;;;4.68;;
17953;SDS011;9102;53.548;9.926;2022-11-20T03:23:09;7.88;;;4.55;;
17953;SDS011;9102;53.548;9.926;2022-11-20T03:25:36;8.48;;;5.07;;
17953;SDS011;9102;53.548;9.926;2022-11-20T03:28:03;8.75;;;4.38;;
17953;SDS011;9102;53.548;9.926;2022-11-20T03:30:30;6.60;;;4.25;;
17953;SDS011;9102;53.548;9.926;2022-11-20T03:32:58;7.10;;;4.60;;
17953;SDS011;9102;53.548;9.926;2022-11-20T03:35:25;7.53;;;4.53;;
17953;SDS011;9102;53.548;9.926;2022-11-20T03:37:52;7.03;;;4.72;;
17953;SDS011;9102;53.548;9.926;2022-11-20T03:40:18;8.75;;;5.40;;
17953;SDS011;9102;53.548;9.926;2022-11-20T03:42:45;7.88;;;4.25;;
17953;SDS011;9102;53.548;9.926;2022-11-20T03:45:12;6.05;;;4.00;;
17953;SDS011;9102;53.548;9.926;2022-11-20T03:47:39;7.53;;;4.38;;
17953;SDS011;9102;53.548;9.926;2022-11-20T03:50:08;7.28;;;4.55;;
17953;SDS011;9102;53.548;9.926;2022-11-20T03:52:35;10.52;;;4.35;;
17953;SDS011;9102;53.548;9.926;2022-11-20T03:55:02;7.30;;;4.25;;
17953;SDS011;9102;53.548;9.926;2022-11-20T03:57:29;7.18;;;4.18;;
17953;SDS011;9102;53.548;9.926;2022-11-20T03:59:56;8.75;;;4.55;;
17953;SDS011;9102;53.548;9.926;2022-11-20T04:02:23;11.05;;;4.57;;
17953;SDS011;9102;53.548;9.926;2022-11-20T04:04:50;9.90;;;4.95;;
17953;SDS011;9102;53.548;9.926;2022-11-20T04:07:18;9.00;;;4.43;;
17953;SDS011;9102;53.548;9.926;2022-11-20T04:09:45;7.22;;;4.53;;
17953;SDS011;9102;53.548;9.926;2022-11-20T04:12:12;8.77;;;5.05;;
17953;SDS011;9102;53.548;9.926;2022-11-20T04:14:39;8.43;;;4.85;;
17953;SDS011;9102;53.548;9.926;2022-11-20T04:17:06;6.35;;;4.05;;
17953;SDS011;9102;53.548;9.926;2022-11-20T04:19:33;6.63;;;4.60;;
17953;SDS011;9102;53.548;9.926;2022-11-20T04:22:00;8.60;;;4.60;;
17953;SDS011;9102;53.548;9.926;2022-11-20T04:24:28;6.80;;;4.50;;
17953;SDS011;9102;53.548;9.926;2022-11-20T04:26:56;10.20;;;4.35;;
17953;SDS011;9102;53.548;9.926;2022-11-20T04:29:23;7.00;;;4.53;;
17953;SDS011;9102;53.548;9.926;2022-11-20T04:31:50;8.52;;;4.60;;
17953;SDS011;9102;53.548;9.926;2022-11-20T04:34:19;6.60;;;4.53;;
17953;SDS011;9102;53.548;9.926;2022-11-20T04:36:46;5.68;;;4.18;;
17953;SDS011;9102;53.548;9.926;2022-11-20T04:39:13;6.65;;;4.18;;
17953;SDS011;9102;53.548;9.926;2022-11-20T04:41:43;7.35;;;4.07;;
17953;SDS011;9102;53.548;9.926;2022-11-20T04:44:10;8.52;;;4.85;;
17953;SDS011;9102;53.548;9.926;2022-11-20T04:46:38;11.27;;;4.40;;
17953;SDS011;9102;53.548;9.926;2022-11-20T04:49:06;8.13;;;4.50;;
17953;SDS011;9102;53.548;9.926;2022-11-20T04:51:34;7.20;;;4.30;;
17953;SDS011;9102;53.548;9.926;2022-11-20T04:54:01;6.28;;;4.10;;
17953;SDS011;9102;53.548;9.926;2022-11-20T04:56:28;6.20;;;3.88;;
17953;SDS011;9102;53.548;9.926;2022-11-20T04:58:59;8.73;;;4.28;;
17953;SDS011;9102;53.548;9.926;2022-11-20T05:04:48;8.23;;;4.40;;
17953;SDS011;9102;53.548;9.926;2022-11-20T05:07:15;8.25;;;4.35;;
17953;SDS011;9102;53.548;9.926;2022-11-20T05:09:42;6.78;;;3.92;;
17953;SDS011;9102;53.548;9.926;2022-11-20T05:12:09;7.18;;;4.22;;
17953;SDS011;9102;53.548;9.926;2022-11-20T05:14:37;8.55;;;4.78;;
17953;SDS011;9102;53.548;9.926;2022-11-20T05:17:04;6.25;;;4.43;;
17953;SDS011;9102;53.548;9.926;2022-11-20T05:19:31;9.48;;;4.72;;
17953;SDS011;9102;53.548;9.926;2022-11-20T05:21:58;9.98;;;4.75;;
17953;SDS011;9102;53.548;9.926;2022-11-20T05:24:24;7.57;;;4.43;;
17953;SDS011;9102;53.548;9.926;2022-11-20T05:26:51;8.15;;;4.60;;
17953;SDS011;9102;53.548;9.926;2022-11-20T05:29:18;10.40;;;5.47;;
17953;SDS011;9102;53.548;9.926;2022-11-20T05:31:46;6.75;;;4.50;;
17953;SDS011;9102;53.548;9.926;2022-11-20T05:34:13;7.53;;;4.90;;
17953;SDS011;9102;53.548;9.926;2022-11-20T05:36:40;7.97;;;4.93;;
17953;SDS011;9102;53.548;9.926;2022-11-20T05:39:07;8.25;;;5.13;;
17953;SDS011;9102;53.548;9.926;2022-11-20T05:41:34;10.27;;;4.85;;
17953;SDS011;9102;53.548;9.926;2022-11-20T05:44:01;7.80;;;4.88;;
17953;SDS011;9102;53.548;9.926;2022-11-20T05:46:28;8.55;;;4.63;;
17953;SDS011;9102;53.548;9.926;2022-11-20T05:48:56;6.22;;;4.53;;
17953;SDS011;9102;53.548;9.926;2022-11-20T05:51:24;9.23;;;5.23;;
17953;SDS011;9102;53.548;9.926;2022-11-20T05:53:51;8.80;;;5.70;;
17953;SDS011;9102;53.548;9.926;2022-11-20T05:56:18;6.73;;;4.57;;
17953;SDS011;9102;53.548;9.926;2022-11-20T05:58:46;9.25;;;5.72;;
17953;SDS011;9102;53.548;9.926;2022-11-20T06:01:14;12.60;;;5.40;;
17953;SDS011;9102;53.548;9.926;2022-11-20T06:03:43;7.00;;;5.13;;
17953;SDS011;9102;53.548;9.926;2022-11-20T06:06:14;8.05;;;5.25;;
17953;SDS011;9102;53.548;9.926;2022-11-20T06:08:42;11.13;;;5.78;;
17953;SDS011;9102;53.548;9.926;2022-11-20T06:11:09;8.45;;;5.25;;
17953;SDS011;9102;53.548;9.926;2022-11-20T06:13:37;9.43;;;5.80;;
17953;SDS011;9102;53.548;9.926;2022-11-20T06:16:04;13.73;;;7.13;;
17953;SDS011;9102;53.548;9.926;2022-11-20T06:18:32;11.73;;;6.43;;
17953;SDS011;9102;53.548;9.926;2022-11-20T06:21:00;13.45;;;6.50;;
17953;SDS011;9102;53.548;9.926;2022-11-20T06:23:29;7.93;;;5.68;;
17953;SDS011;9102;53.548;9.926;2022-11-20T06:25:56;11.15;;;5.60;;
17953;SDS011;9102;53.548;9.926;2022-11-20T06:28:24;9.48;;;5.13;;
17953;SDS011;9102;53.548;9.926;2022-11-20T06:30:51;9.13;;;5.15;;
17953;SDS011;9102;53.548;9.926;2022-11-20T06:33:17;8.55;;;5.07;;
17953;SDS011;9102;53.548;9.926;2022-11-20T06:35:44;9.93;;;5.20;;
17953;SDS011;9102;53.548;9.926;2022-11-20T06:38:11;8.73;;;4.97;;
17953;SDS011;9102;53.548;9.926;2022-11-20T06:40:41;8.43;;;4.53;;
17953;SDS011;9102;53.548;9.926;2022-11-20T06:43:09;7.85;;;5.20;;
17953;SDS011;9102;53.548;9.926;2022-11-20T06:45:36;8.60;;;5.25;;
17953;SDS011;9102;53.548;9.926;2022-11-20T06:48:03;8.05;;;5.00;;
17953;SDS011;9102;53.548;9.926;2022-11-20T06:50:31;7.95;;;5.00;;
17953;SDS011;9102;53.548;9.926;2022-11-20T06:53:00;9.10;;;6.22;;
17953;SDS011;9102;53.548;9.926;2022-11-20T06:55:28;11.45;;;5.15;;
17953;SDS011;9102;53.548;9.926;2022-11-20T06:57:56;8.30;;;4.55;;
17953;SDS011;9102;53.548;9.926;2022-11-20T07:00:23;9.32;;;5.05;;
17953;SDS011;9102;53.548;9.926;2022-11-20T07:02:50;9.48;;;5.30;;
17953;SDS011;9102;53.548;9.926;2022-11-20T07:05:17;7.73;;;4.93;;
17953;SDS011;9102;53.548;9.926;2022-11-20T07:07:44;8.43;;;5.15;;
17953;SDS011;9102;53.548;9.926;2022-11-20T07:10:11;8.00;;;5.22;;
17953;SDS011;9102;53.548;9.926;2022-11-20T07:12:38;8.43;;;5.32;;
17953;SDS011;9102;53.548;9.926;2022-11-20T07:15:07;7.10;;;4.78;;
17953;SDS011;9102;53.548;9.926;2022-11-20T07:17:34;12.00;;;5.70;;
17953;SDS011;9102;53.548;9.926;2022-11-20T07:20:01;8.27;;;5.00;;
17953;SDS011;9102;53.548;9.926;2022-11-20T07:22:28;10.23;;;6.38;;
17953;SDS011;9102;53.548;9.926;2022-11-20T07:24:55;9.82;;;6.75;;
17953;SDS011;9102;53.548;9.926;2022-11-20T07:27:22;14.55;;;7.68;;
17953;SDS011;9102;53.548;9.926;2022-11-20T07:29:49;10.00;;;7.15;;
17953;SDS011;9102;53.548;9.926;2022-11-20T07:32:17;13.30;;;8.35;;
17953;SDS011;9102;53.548;9.926;2022-11-20T07:34:44;13.27;;;9.10;;
17953;SDS011;9102;53.548;9.926;2022-11-20T07:37:11;17.42;;;10.57;;
17953;SDS011;9102;53.548;9.926;2022-11-20T07:39:38;14.25;;;9.98;;
17953;SDS011;9102;53.548;9.926;2022-11-20T07:42:05;15.73;;;10.63;;
17953;SDS011;9102;53.548;9.926;2022-11-20T07:44:33;16.27;;;9.98;;
17953;SDS011;9102;53.548;9.926;2022-11-20T07:46:59;16.60;;;10.40;;
17953;SDS011;9102;53.548;9.926;2022-11-20T07:49:28;14.27;;;9.20;;
17953;SDS011;9102;53.548;9.926;2022-11-20T07:51:55;15.15;;;9.40;;
17953;SDS011;9102;53.548;9.926;2022-11-20T07:54:22;13.73;;;7.82;;
17953;SDS011;9102;53.548;9.926;2022-11-20T07:56:49;11.65;;;8.00;;
17953;SDS011;9102;53.548;9.926;2022-11-20T07:59:16;10.68;;;6.95;;
17953;SDS011;9102;53.548;9.926;2022-11-20T08:01:43;10.77;;;6.80;;
17953;SDS011;9102;53.548;9.926;2022-11-20T08:04:10;10.20;;;6.68;;
17953;SDS011;9102;53.548;9.926;2022-11-20T08:06:38;8.93;;;6.68;;
17953;SDS011;9102;53.548;9.926;2022-11-20T08:09:05;12.98;;;6.90;;
17953;SDS011;9102;53.548;9.926;2022-11-20T08:11:32;14.35;;;6.60;;
17953;SDS011;9102;53.548;9.926;2022-11-20T08:14:16;10.13;;;5.70;;
17953;SDS011;9102;53.548;9.926;2022-11-20T08:16:44;9.93;;;6.53;;
17953;SDS011;9102;53.548;9.926;2022-11-20T08:19:11;10.57;;;6.45;;
17953;SDS011;9102;53.548;9.926;2022-11-20T08:21:40;12.05;;;5.32;;
17953;SDS011;9102;53.548;9.926;2022-11-20T08:24:07;9.13;;;5.63;;
17953;SDS011;9102;53.548;9.926;2022-11-20T08:26:34;8.60;;;6.18;;
17953;SDS011;9102;53.548;9.926;2022-11-20T08:29:01;8.40;;;5.35;;
17953;SDS011;9102;53.548;9.926;2022-11-20T08:31:30;13.32;;;5.60;;
17953;SDS011;9102;53.548;9.926;2022-11-20T08:33:57;9.35;;;5.18;;
17953;SDS011;9102;53.548;9.926;2022-11-20T08:36:24;8.63;;;5.18;;
17953;SDS011;9102;53.548;9.926;2022-11-20T08:38:54;12.23;;;5.57;;
17953;SDS011;9102;53.548;9.926;2022-11-20T08:41:22;8.75;;;4.80;;
17953;SDS011;9102;53.548;9.926;2022-11-20T08:43:53;7.65;;;4.50;;
17953;SDS011;9102;53.548;9.926;2022-11-20T08:46:22;6.10;;;4.68;;
17953;SDS011;9102;53.548;9.926;2022-11-20T08:48:50;6.97;;;4.38;;
17953;SDS011;9102;53.548;9.926;2022-11-20T08:51:17;7.32;;;4.20;;
17953;SDS011;9102;53.548;9.926;2022-11-20T08:53:45;5.63;;;3.70;;
17953;SDS011;9102;53.548;9.926;2022-11-20T08:56:15;5.78;;;3.92;;
17953;SDS011;9102;53.548;9.926;2022-11-20T08:58:43;6.00;;;3.80;;
17953;SDS011;9102;53.548;9.926;2022-11-20T09:01:10;6.53;;;4.07;;
17953;SDS011;9102;53.548;9.926;2022-11-20T09:03:36;7.85;;;4.18;;
17953;SDS011;9102;53.548;9.926;2022-11-20T09:06:04;5.95;;;3.63;;
17953;SDS011;9102;53.548;9.926;2022-11-20T09:08:33;6.78;;;3.83;;
17953;SDS011;9102;53.548;9.926;2022-11-20T09:11:00;4.32;;;3.38;;
17953;SDS011;9102;53.548;9.926;2022-11-20T09:13:29;4.82;;;3.10;;
17953;SDS011;9102;53.548;9.926;2022-11-20T09:15:56;4.57;;;2.95;;
17953;SDS011;9102;53.548;9.926;2022-11-20T09:18:24;5.60;;;3.80;;
17953;SDS011;9102;53.548;9.926;2022-11-20T09:20:55;7.15;;;3.20;;
17953;SDS011;9102;53.548;9.926;2022-11-20T09:23:22;4.90;;;3.03;;
17953;SDS011;9102;53.548;9.926;2022-11-20T09:25:49;7.40;;;2.90;;
17953;SDS011;9102;53.548;9.926;2022-11-20T09:28:16;5.30;;;3.30;;
17953;SDS011;9102;53.548;9.926;2022-11-20T09:30:44;5.55;;;3.35;;
17953;SDS011;9102;53.548;9.926;2022-11-20T09:33:11;4.05;;;3.05;;
17953;SDS011;9102;53.548;9.926;2022-11-20T09:35:40;5.97;;;3.50;;
17953;SDS011;9102;53.548;9.926;2022-11-20T09:38:21;3.92;;;3.00;;
17953;SDS011;9102;53.548;9.926;2022-11-20T09:40:53;3.80;;;2.58;;
17953;SDS011;9102;53.548;9.926;2022-11-20T09:43:27;3.58;;;2.42;;
17953;SDS011;9102;53.548;9.926;2022-11-20T09:46:09;4.25;;;2.80;;
17953;SDS011;9102;53.548;9.926;2022-11-20T09:48:53;4.97;;;2.45;;
17953;SDS011;9102;53.548;9.926;2022-11-20T09:51:52;4.53;;;2.35;;
17953;SDS011;9102;53.548;9.926;2022-11-20T09:54:27;4.63;;;2.50;;
17953;SDS011;9102;53.548;9.926;2022-11-20T09:57:01;6.05;;;3.00;;
17953;SDS011;9102;53.548;9.926;2022-11-20T09:59:35;5.63;;;2.92;;
17953;SDS011;9102;53.548;9.926;2022-11-20T10:02:14;5.50;;;3.10;;
17953;SDS011;9102;53.548;9.926;2022-11-20T10:04:44;4.30;;;2.95;;
17953;SDS011;9102;53.548;9.926;2022-11-20T10:07:23;6.85;;;3.10;;
17953;SDS011;9102;53.548;9.926;2022-11-20T10:09:56;2.85;;;2.50;;
17953;SDS011;9102;53.548;9.926;2022-11-20T10:12:25;4.05;;;2.90;;
17953;SDS011;9102;53.548;9.926;2022-11-20T10:15:01;4.95;;;3.00;;
17953;SDS011;9102;53.548;9.926;2022-11-20T10:17:57;2.78;;;2.42;;
17953;SDS011;9102;53.548;9.926;2022-11-20T10:20:43;3.58;;;2.75;;
17953;SDS011;9102;53.548;9.926;2022-11-20T10:23:36;5.60;;;3.25;;
17953;SDS011;9102;53.548;9.926;2022-11-20T10:26:16;6.18;;;3.22;;
17953;SDS011;9102;53.548;9.926;2022-11-20T10:29:07;3.58;;;2.78;;
17953;SDS011;9102;53.548;9.926;2022-11-20T10:31:40;4.68;;;2.90;;
17953;SDS011;9102;53.548;9.926;2022-11-20T10:34:19;5.80;;;3.60;;
17953;SDS011;9102;53.548;9.926;2022-11-20T10:36:55;3.03;;;2.50;;
17953;SDS011;9102;53.548;9.926;2022-11-20T10:39:38;3.63;;;2.90;;
17953;SDS011;9102;53.548;9.926;2022-11-20T10:42:17;3.25;;;2.60;;
17953;SDS011;9102;53.548;9.926;2022-11-20T10:44:55;4.50;;;2.90;;
17953;SDS011;9102;53.548;9.926;2022-11-20T10:47:39;3.80;;;2.90;;
17953;SDS011;9102;53.548;9.926;2022-11-20T10:50:13;4.35;;;2.97;;
17953;SDS011;9102;53.548;9.926;2022-11-20T10:52:49;4.43;;;2.90;;
17953;SDS011;9102;53.548;9.926;2022-11-20T10:55:25;3.72;;;3.00;;
17953;SDS011;9102;53.548;9.926;2022-11-20T10:57:58;7.22;;;3.42;;
17953;SDS011;9102;53.548;9.926;2022-11-20T11:00:32;7.78;;;3.63;;
17953;SDS011;9102;53.548;9.926;2022-11-20T11:02:59;4.47;;;3.42;;
17953;SDS011;9102;53.548;9.926;2022-11-20T11:05:39;3.47;;;3.03;;
17953;SDS011;9102;53.548;9.926;2022-11-20T11:08:10;6.13;;;4.25;;
17953;SDS011;9102;53.548;9.926;2022-11-20T11:10:42;5.47;;;3.70;;
17953;SDS011;9102;53.548;9.926;2022-11-20T11:13:19;5.97;;;3.88;;
17953;SDS011;9102;53.548;9.926;2022-11-20T11:15:46;5.00;;;3.33;;
17953;SDS011;9102;53.548;9.926;2022-11-20T11:18:22;4.60;;;3.42;;
17953;SDS011;9102;53.548;9.926;2022-11-20T11:20:52;6.45;;;3.35;;
17953;SDS011;9102;53.548;9.926;2022-11-20T11:23:28;4.60;;;3.10;;
17953;SDS011;9102;53.548;9.926;2022-11-20T11:25:58;5.57;;;3.40;;
17953;SDS011;9102;53.548;9.926;2022-11-20T11:28:26;7.43;;;5.13;;
17953;SDS011;9102;53.548;9.926;2022-11-20T11:30:54;7.35;;;3.40;;
17953;SDS011;9102;53.548;9.926;2022-11-20T11:33:22;7.45;;;3.45;;
17953;SDS011;9102;53.548;9.926;2022-11-20T11:35:52;6.05;;;3.85;;
17953;SDS011;9102;53.548;9.926;2022-11-20T11:38:23;4.55;;;3.30;;
17953;SDS011;9102;53.548;9.926;2022-11-20T11:40:55;4.65;;;3.08;;
17953;SDS011;9102;53.548;9.926;2022-11-20T11:43:24;5.50;;;3.15;;
17953;SDS011;9102;53.548;9.926;2022-11-20T11:46:21;4.30;;;3.20;;
17953;SDS011;9102;53.548;9.926;2022-11-20T11:48:57;5.10;;;3.47;;
17953;SDS011;9102;53.548;9.926;2022-11-20T11:51:27;4.28;;;3.50;;
17953;SDS011;9102;53.548;9.926;2022-11-20T11:53:59;4.97;;;3.58;;
17953;SDS011;9102;53.548;9.926;2022-11-20T11:56:29;4.65;;;2.88;;
17953;SDS011;9102;53.548;9.926;2022-11-20T11:59:00;3.72;;;2.92;;
17953;SDS011;9102;53.548;9.926;2022-11-20T12:01:31;5.47;;;3.50;;
17953;SDS011;9102;53.548;9.926;2022-11-20T12:04:04;4.53;;;3.63;;
17953;SDS011;9102;53.548;9.926;2022-11-20T12:06:39;6.00;;;3.60;;
17953;SDS011;9102;53.548;9.926;2022-11-20T12:09:11;5.25;;;3.60;;
17953;SDS011;9102;53.548;9.926;2022-11-20T12:11:41;4.72;;;2.90;;
17953;SDS011;9102;53.548;9.926;2022-11-20T12:14:14;5.05;;;3.22;;
17953;SDS011;9102;53.548;9.926;2022-11-20T12:16:48;4.00;;;2.60;;
17953;SDS011;9102;53.548;9.926;2022-11-20T12:19:17;2.20;;;2.00;;
17953;SDS011;9102;53.548;9.926;2022-11-20T12:21:52;3.40;;;2.20;;
17953;SDS011;9102;53.548;9.926;2022-11-20T12:24:32;3.50;;;2.10;;
17953;SDS011;9102;53.548;9.926;2022-11-20T12:27:10;3.88;;;2.78;;
17953;SDS011;9102;53.548;9.926;2022-11-20T12:29:56;3.58;;;2.33;;
17953;SDS011;9102;53.548;9.926;2022-11-20T12:32:36;3.78;;;2.10;;
17953;SDS011;9102;53.548;9.926;2022-11-20T12:35:17;5.93;;;2.58;;
17953;SDS011;9102;53.548;9.926;2022-11-20T12:38:01;3.30;;;2.20;;
17953;SDS011;9102;53.548;9.926;2022-11-20T12:40:56;3.35;;;2.58;;
17953;SDS011;9102;53.548;9.926;2022-11-20T12:43:31;5.15;;;2.75;;
17953;SDS011;9102;53.548;9.926;2022-11-20T12:46:24;4.35;;;2.90;;
17953;SDS011;9102;53.548;9.926;2022-11-20T12:49:04;5.03;;;3.75;;
17953;SDS011;9102;53.548;9.926;2022-11-20T12:51:51;3.63;;;2.65;;
17953;SDS011;9102;53.548;9.926;2022-11-20T12:54:54;3.10;;;2.45;;
17953;SDS011;9102;53.548;9.926;2022-11-20T12:57:37;4.88;;;3.25;;
17953;SDS011;9102;53.548;9.926;2022-11-20T13:00:14;3.35;;;2.60;;
17953;SDS011;9102;53.548;9.926;2022-11-20T13:02:51;2.83;;;2.33;;
17953;SDS011;9102;53.548;9.926;2022-11-20T13:05:46;3.45;;;2.60;;
17953;SDS011;9102;53.548;9.926;2022-11-20T13:08:22;2.97;;;2.42;;
17953;SDS011;9102;53.548;9.926;2022-11-20T13:10:54;5.05;;;2.78;;
17953;SDS011;9102;53.548;9.926;2022-11-20T13:13:29;6.50;;;2.97;;
17953;SDS011;9102;53.548;9.926;2022-11-20T13:16:15;6.25;;;2.83;;
17953;SDS011;9102;53.548;9.926;2022-11-20T13:18:46;3.47;;;2.75;;
17953;SDS011;9102;53.548;9.926;2022-11-20T13:21:14;4.30;;;2.30;;
17953;SDS011;9102;53.548;9.926;2022-11-20T13:23:42;2.30;;;2.00;;
17953;SDS011;9102;53.548;9.926;2022-11-20T13:26:15;2.95;;;2.22;;
17953;SDS011;9102;53.548;9.926;2022-11-20T13:28:45;3.63;;;2.72;;
17953;SDS011;9102;53.548;9.926;2022-11-20T13:31:23;6.18;;;3.20;;
17953;SDS011;9102;53.548;9.926;2022-11-20T13:33:57;3.28;;;2.40;;
17953;SDS011;9102;53.548;9.926;2022-11-20T13:36:27;7.32;;;2.90;;
17953;SDS011;9102;53.548;9.926;2022-11-20T13:38:56;3.17;;;2.33;;
17953;SDS011;9102;53.548;9.926;2022-11-20T13:41:26;4.55;;;2.30;;
17953;SDS011;9102;53.548;9.926;2022-11-20T13:43:57;4.45;;;2.72;;
17953;SDS011;9102;53.548;9.926;2022-11-20T13:46:34;3.63;;;2.60;;
17953;SDS011;9102;53.548;9.926;2022-11-20T13:49:06;3.92;;;2.83;;
17953;SDS011;9102;53.548;9.926;2022-11-20T13:51:37;5.20;;;2.88;;
17953;SDS011;9102;53.548;9.926;2022-11-20T13:54:32;3.30;;;2.47;;
17953;SDS011;9102;53.548;9.926;2022-11-20T14:00:41;3.05;;;2.38;;
17953;SDS011;9102;53.548;9.926;2022-11-20T14:03:14;4.18;;;2.28;;
17953;SDS011;9102;53.548;9.926;2022-11-20T14:05:46;2.75;;;2.15;;
17953;SDS011;9102;53.548;9.926;2022-11-20T14:08:23;2.83;;;2.03;;
17953;SDS011;9102;53.548;9.926;2022-11-20T14:11:02;3.55;;;2.38;;
17953;SDS011;9102;53.548;9.926;2022-11-20T14:13:30;5.68;;;2.55;;
17953;SDS011;9102;53.548;9.926;2022-11-20T14:15:58;4.00;;;2.55;;
17953;SDS011;9102;53.548;9.926;2022-11-20T14:18:25;4.78;;;2.88;;
17953;SDS011;9102;53.548;9.926;2022-11-20T14:20:53;2.33;;;2.05;;
17953;SDS011;9102;53.548;9.926;2022-11-20T14:23:23;3.88;;;2.50;;
17953;SDS011;9102;53.548;9.926;2022-11-20T14:25:51;3.92;;;2.60;;
17953;SDS011;9102;53.548;9.926;2022-11-20T14:28:20;3.88;;;2.95;;
17953;SDS011;9102;53.548;9.926;2022-11-20T14:30:51;4.25;;;2.63;;
17953;SDS011;9102;53.548;9.926;2022-11-20T14:33:19;3.97;;;2.83;;
17953;SDS011;9102;53.548;9.926;2022-11-20T14:35:50;4.35;;;3.08;;
17953;SDS011;9102;53.548;9.926;2022-11-20T14:38:18;13.60;;;6.97;;
17953;SDS011;9102;53.548;9.926;2022-11-20T14:40:50;3.22;;;2.63;;
17953;SDS011;9102;53.548;9.926;2022-11-20T14:43:18;3.78;;;2.60;;
17953;SDS011;9102;53.548;9.926;2022-11-20T14:45:48;4.47;;;2.90;;
17953;SDS011;9102;53.548;9.926;2022-11-20T14:48:23;6.88;;;3.75;;
17953;SDS011;9102;53.548;9.926;2022-11-20T14:50:55;4.97;;;3.25;;
17953;SDS011;9102;53.548;9.926;2022-11-20T14:53:22;7.18;;;3.42;;
17953;SDS011;9102;53.548;9.926;2022-11-20T14:55:54;4.75;;;3.03;;
17953;SDS011;9102;53.548;9.926;2022-11-20T14:58:23;5.97;;;3.17;;
17953;SDS011;9102;53.548;9.926;2022-11-20T15:00:55;3.20;;;2.50;;
17953;SDS011;9102;53.548;9.926;2022-11-20T15:03:30;5.25;;;2.97;;
17953;SDS011;9102;53.548;9.926;2022-11-20T15:05:57;3.90;;;2.90;;
17953;SDS011;9102;53.548;9.926;2022-11-20T15:08:24;5.13;;;3.30;;
17953;SDS011;9102;53.548;9.926;2022-11-20T15:10:51;5.18;;;3.40;;
17953;SDS011;9102;53.548;9.926;2022-11-20T15:13:22;5.88;;;3.72;;
17953;SDS011;9102;53.548;9.926;2022-11-20T15:15:53;5.22;;;3.42;;
17953;SDS011;9102;53.548;9.926;2022-11-20T15:18:21;7.38;;;3.05;;
17953;SDS011;9102;53.548;9.926;2022-11-20T15:20:53;7.45;;;3.60;;
17953;SDS011;9102;53.548;9.926;2022-11-20T15:23:21;3.45;;;2.63;;
17953;SDS011;9102;53.548;9.926;2022-11-20T15:25:48;4.78;;;2.75;;
17953;SDS011;9102;53.548;9.926;2022-11-20T15:28:16;4.80;;;3.58;;